createdAt,value
2022-11-24T00:02:52.326Z,100080.88
2022-11-24T00:07:53.974Z,100071.22
2022-11-24T00:12:55.547Z,100068.56
2022-11-24T00:17:57.081Z,100066.75
2022-11-24T00:22:58.615Z,100068.94
2022-11-24T00:28:00.086Z,100071.22
2022-11-24T00:33:01.692Z,100075.50
2022-11-24T00:38:03.132Z,100072.81
2022-11-24T00:43:04.596Z,100076.88
2022-11-24T00:48:06.182Z,100087.13
2022-11-24T00:53:07.749Z,100095.75
2022-11-24T00:58:09.203Z,100098.38
2022-11-24T01:03:12.171Z,100088.97
2022-11-24T01:08:13.693Z,100098.28
2022-11-24T01:13:15.309Z,100095.78
2022-11-24T01:18:16.806Z,100111.41
2022-11-24T01:23:18.287Z,100123.31
2022-11-24T01:28:19.805Z,100112.78
2022-11-24T01:33:21.310Z,100120.16
2022-11-24T01:38:22.852Z,100108.66
2022-11-24T01:43:24.336Z,100122.88
2022-11-24T01:48:41.036Z,100113.94
2022-11-24T01:53:45.600Z,100121.38
2022-11-24T01:58:48.994Z,100133.16
2022-11-24T02:03:51.905Z,100137.84
2022-11-24T02:09:00.588Z,100144.34
2022-11-24T02:14:04.016Z,100156.94
2022-11-24T02:19:17.215Z,100165.06
2022-11-24T02:24:37.595Z,100175.06
2022-11-24T02:29:40.726Z,100175.59
2022-11-24T02:34:42.202Z,100184.41
2022-11-24T02:39:43.684Z,100181.53
2022-11-24T02:45:02.124Z,100199.56
2022-11-24T02:50:09.817Z,100199.41
2022-11-24T02:55:11.271Z,100205.31
2022-11-24T03:00:13.167Z,100206.03
2022-11-24T03:05:14.933Z,100206.38
2022-11-24T03:10:16.787Z,100205.41
2022-11-24T03:15:18.350Z,100211.13
2022-11-24T03:20:19.799Z,100215.78
2022-11-24T03:25:21.272Z,100222.84
2022-11-24T03:30:22.737Z,100221.53
2022-11-24T03:35:24.254Z,100228.00
2022-11-24T03:40:25.746Z,100232.78
2022-11-24T03:45:45.345Z,100232.41
2022-11-24T03:50:56.107Z,100247.47
2022-11-24T03:55:58.194Z,100250.28
2022-11-24T04:00:59.748Z,100259.88
2022-11-24T04:06:01.961Z,100259.88
2022-11-24T04:11:03.561Z,100262.72
2022-11-24T04:16:06.099Z,100271.34
2022-11-24T04:21:07.581Z,100273.88
2022-11-24T04:26:09.027Z,100273.34
2022-11-24T04:31:10.654Z,100278.84
2022-11-24T04:36:12.190Z,100279.66
2022-11-24T04:41:13.632Z,100278.22
2022-11-24T04:46:15.144Z,100287.88
2022-11-24T04:51:16.793Z,100297.88
2022-11-24T04:56:18.295Z,100314.69
2022-11-24T05:01:19.824Z,100314.69
2022-11-24T05:06:22.101Z,100317.19
2022-11-24T05:11:23.578Z,100313.69
2022-11-24T05:16:25.128Z,100320.19
2022-11-24T05:21:27.652Z,100334.50
2022-11-24T05:26:29.116Z,100341.94
2022-11-24T05:31:30.884Z,100354.16
2022-11-24T05:36:50.563Z,100357.94
2022-11-24T05:41:52.199Z,100358.00
2022-11-24T05:46:53.778Z,100361.25
2022-11-24T05:51:55.293Z,100357.84
2022-11-24T05:56:56.733Z,100368.13
2022-11-24T06:01:58.494Z,100369.81
2022-11-24T06:07:01.551Z,100371.53
2022-11-24T06:12:03.468Z,100375.84
2022-11-24T06:17:06.719Z,100377.53
2022-11-24T06:22:08.195Z,100391.13
2022-11-24T06:27:09.677Z,100390.88
2022-11-24T06:32:11.178Z,100396.91
2022-11-24T06:37:12.667Z,100408.09
2022-11-24T06:42:18.494Z,100413.41
2022-11-24T06:47:19.991Z,100423.72
2022-11-24T06:52:21.445Z,100426.53
2022-11-24T06:57:22.940Z,100436.25
2022-11-24T07:02:24.488Z,100445.16
2022-11-24T07:07:26.171Z,100453.19
2022-11-24T07:12:29.127Z,100462.72
2022-11-24T07:17:30.673Z,100462.72
2022-11-24T07:22:32.490Z,100485.91
2022-11-24T07:27:34.137Z,100496.38
2022-11-24T07:32:35.646Z,100499.19
2022-11-24T07:37:37.092Z,100515.72
2022-11-24T07:42:38.536Z,100515.16
2022-11-24T07:47:40.820Z,100528.09
2022-11-24T07:52:42.299Z,100534.91
2022-11-24T07:57:43.975Z,100536.69
2022-11-24T08:02:45.626Z,100547.94
2022-11-24T08:07:47.137Z,100549.22
2022-11-24T08:12:48.635Z,100552.09
2022-11-24T08:17:50.124Z,100554.88
2022-11-24T08:22:51.559Z,100560.34
2022-11-24T08:27:53.085Z,100567.31
2022-11-24T08:32:54.616Z,100570.13
2022-11-24T08:37:59.200Z,100578.00
2022-11-24T08:43:04.705Z,100585.19
2022-11-24T08:48:06.251Z,100588.00
2022-11-24T08:53:07.681Z,100593.53
2022-11-24T08:58:09.195Z,100599.19
2022-11-24T09:03:12.079Z,100594.91
2022-11-24T09:08:13.548Z,100596.50
2022-11-24T09:13:14.974Z,100601.97
2022-11-24T09:18:16.471Z,100610.03
2022-11-24T09:23:18.006Z,100616.41
2022-11-24T09:28:19.477Z,100618.19
2022-11-24T09:33:20.927Z,100616.03
2022-11-24T09:38:22.973Z,57128.34
2022-11-24T09:43:40.841Z,57128.34
2022-11-24T09:48:47.362Z,57128.34
2022-11-24T09:54:01.230Z,57128.34
2022-11-24T09:59:14.544Z,57128.34
2022-11-24T10:04:32.625Z,57128.34
2022-11-24T10:09:44.526Z,57128.34
2022-11-24T10:15:04.638Z,57128.34
2022-11-24T10:20:10.986Z,57128.34
2022-11-24T10:25:26.171Z,57128.34
2022-11-24T10:30:27.785Z,57128.34
2022-11-24T10:35:38.169Z,57128.34
2022-11-24T10:41:01.745Z,57128.34
2022-11-24T10:46:19.573Z,57128.34
2022-11-24T10:51:37.277Z,100616.03
2022-11-24T10:56:43.051Z,100683.63
2022-11-24T11:01:44.770Z,100693.13
2022-11-24T11:06:46.335Z,100689.97
2022-11-24T11:11:49.083Z,100707.47
2022-11-24T11:16:56.506Z,100718.81
2022-11-24T11:22:03.886Z,100727.56
2022-11-24T11:27:17.830Z,100728.53
2022-11-24T11:37:50.985Z,100745.31
2022-11-24T11:43:12.665Z,100748.59
2022-11-24T11:48:43.645Z,100764.78
2022-11-24T11:54:18.377Z,100766.50
2022-11-24T11:59:46.269Z,100758.16
2022-11-24T12:05:00.167Z,100764.38
2022-11-24T12:10:21.767Z,100768.25
2022-11-24T12:15:26.037Z,100776.84
2022-11-24T12:20:55.177Z,100775.06
2022-11-24T12:26:09.423Z,100784.66
2022-11-24T12:31:28.483Z,100795.75
2022-11-24T12:36:56.020Z,100797.38
2022-11-24T12:42:15.984Z,100798.81
2022-11-24T12:47:28.754Z,100812.56
2022-11-24T12:52:37.373Z,100811.47
2022-11-24T12:57:55.734Z,100821.81
2022-11-24T13:03:19.324Z,100824.34
2022-11-24T13:08:21.826Z,100811.28
2022-11-24T13:13:29.435Z,100811.16
2022-11-24T13:18:53.447Z,100806.78
2022-11-24T13:24:00.667Z,100824.94
2022-11-24T13:29:13.325Z,100823.22
2022-11-24T13:34:41.154Z,100825.59
2022-11-24T13:40:07.866Z,100828.19
2022-11-24T13:45:50.643Z,100831.44
2022-11-24T13:50:54.804Z,100839.88
2022-11-24T13:56:00.153Z,100839.00
2022-11-24T14:01:15.093Z,57128.34
2022-11-24T14:06:28.073Z,100839.00
2022-11-24T14:11:29.642Z,100854.16
2022-11-24T14:16:31.153Z,100852.31
2022-11-24T14:21:44.539Z,100853.78
2022-11-24T14:26:46.965Z,100854.53
2022-11-24T14:31:59.553Z,100858.53
2022-11-24T14:37:01.782Z,100859.16
2022-11-24T14:42:20.214Z,100868.53
2022-11-24T14:47:38.391Z,100874.34
2022-11-24T14:52:53.516Z,100882.78
2022-11-24T14:57:55.369Z,100885.81
2022-11-24T15:03:02.760Z,100892.44
2022-11-24T15:08:04.474Z,100897.44
2022-11-24T15:13:16.964Z,100901.28
2022-11-24T15:18:33.282Z,100905.91
2022-11-24T15:23:36.054Z,100906.91
2022-11-24T15:28:38.364Z,100912.53
2022-11-24T15:33:41.033Z,100906.63
2022-11-24T15:38:42.816Z,100920.75
2022-11-24T15:43:44.376Z,100921.97
2022-11-24T15:48:46.089Z,100935.41
2022-11-24T15:53:58.708Z,100931.47
2022-11-24T15:59:04.052Z,100949.78
2022-11-24T16:04:05.558Z,100950.06
2022-11-24T16:09:12.431Z,100961.53
2022-11-24T16:14:14.053Z,100964.31
2022-11-24T16:19:15.827Z,100968.91
2022-11-24T16:24:17.532Z,100977.81
2022-11-24T16:29:20.821Z,100984.22
2022-11-24T16:34:22.301Z,100983.34
2022-11-24T16:39:23.778Z,100982.53
2022-11-24T16:44:25.290Z,100982.75
2022-11-24T16:49:26.745Z,100984.59
2022-11-24T16:54:28.200Z,100987.09
2022-11-24T16:59:29.647Z,100986.06
2022-11-24T17:04:31.197Z,100995.03
2022-11-24T17:09:37.393Z,100993.44
2022-11-24T17:14:41.702Z,100996.13
2022-11-24T17:19:43.747Z,100999.44
2022-11-24T17:24:45.486Z,100999.72
2022-11-24T17:29:46.966Z,101000.88
2022-11-24T17:34:48.575Z,100995.44
2022-11-24T17:40:12.519Z,100990.19
2022-11-24T17:45:11.547Z,101004.47
2022-11-24T17:50:13.039Z,101012.50
2022-11-24T17:55:14.579Z,101007.91
2022-11-24T18:00:16.390Z,100998.91
2022-11-24T18:05:17.957Z,101002.59
2022-11-24T18:10:19.796Z,101005.69
2022-11-24T18:15:21.344Z,101013.19
2022-11-24T18:20:22.853Z,101009.72
2022-11-24T18:25:24.518Z,101006.19
2022-11-24T18:30:26.003Z,101006.94
2022-11-24T18:35:27.613Z,101007.53
2022-11-24T18:40:29.082Z,101000.78
2022-11-24T18:45:30.598Z,100995.69
2022-11-24T18:50:33.121Z,101004.81
2022-11-24T18:55:34.592Z,101007.38
2022-11-24T19:00:36.430Z,101006.38
2022-11-24T19:05:37.947Z,101013.69
2022-11-24T19:10:39.703Z,101011.16
2022-11-24T19:15:41.264Z,101013.31
2022-11-24T19:20:42.714Z,101010.97
2022-11-24T19:25:44.915Z,101019.69
2022-11-24T19:30:46.424Z,101017.53
2022-11-24T19:35:47.974Z,101018.63
2022-11-24T19:40:49.414Z,101022.56
2022-11-24T19:45:50.912Z,101029.94
2022-11-24T19:50:59.147Z,101041.88
2022-11-24T19:56:28.513Z,101048.09
2022-11-24T20:01:39.224Z,101056.69
2022-11-24T20:06:43.706Z,101057.78
2022-11-24T20:11:45.825Z,101057.72
2022-11-24T20:16:48.035Z,101059.00
2022-11-24T20:21:50.168Z,101059.59
2022-11-24T20:26:56.593Z,101059.31
2022-11-24T20:31:58.195Z,101060.69
2022-11-24T20:36:59.884Z,101063.22
2022-11-24T20:42:01.299Z,101061.28
2022-11-24T20:47:04.952Z,101067.00
2022-11-24T20:52:06.415Z,101063.31
2022-11-24T20:57:07.832Z,101069.97
2022-11-24T21:02:10.293Z,101075.00
2022-11-24T21:07:13.498Z,101069.03
2022-11-24T21:12:14.984Z,101073.06
2022-11-24T21:17:16.489Z,101066.72
2022-11-24T21:22:17.968Z,101055.91
2022-11-24T21:27:19.551Z,101063.75
2022-11-24T21:32:21.007Z,101065.31
2022-11-24T21:37:22.528Z,101058.59
2022-11-24T21:42:24.008Z,101051.75
2022-11-24T21:47:25.477Z,101060.34
2022-11-24T21:52:26.907Z,101052.09
2022-11-24T21:57:28.366Z,101056.50
2022-11-24T22:02:29.850Z,101065.75
2022-11-24T22:07:32.369Z,101048.34
2022-11-24T22:12:33.880Z,101062.72
2022-11-24T22:17:35.368Z,101061.69
2022-11-24T22:22:36.815Z,101058.06
2022-11-24T22:27:38.292Z,101051.91
2022-11-24T22:32:39.747Z,101045.72
2022-11-24T22:37:41.240Z,101055.47
2022-11-24T22:42:42.655Z,101052.75
2022-11-24T22:47:44.102Z,101046.81
2022-11-24T22:52:45.520Z,101033.09
2022-11-24T22:57:48.450Z,101027.13
2022-11-24T23:02:50.264Z,101025.47
2022-11-24T23:07:51.787Z,101030.06
2022-11-24T23:12:55.129Z,101032.38
2022-11-24T23:17:56.552Z,101027.94
2022-11-24T23:22:59.909Z,101028.88
2022-11-24T23:28:01.886Z,101028.72
2022-11-24T23:33:03.409Z,101034.91
2022-11-24T23:38:07.798Z,101027.19
2022-11-24T23:43:09.588Z,101009.78
2022-11-24T23:48:11.009Z,101003.66
2022-11-24T23:53:12.839Z,101010.31
2022-11-24T23:58:14.297Z,101012.09
